createdAt,value
2016-08-01T00:00:02.853Z,969.17
2016-08-01T00:01:02.857Z,969.21
2016-08-01T00:02:02.861Z,969.21
2016-08-01T00:03:02.857Z,969.2
2016-08-01T00:04:02.858Z,969.22
2016-08-01T00:05:02.861Z,969.2
2016-08-01T00:06:02.862Z,969.21
2016-08-01T00:07:02.861Z,969.26
2016-08-01T00:08:02.861Z,969.26
2016-08-01T00:09:02.866Z,969.25
2016-08-01T00:10:02.865Z,969.24
2016-08-01T00:11:02.866Z,969.22
2016-08-01T00:12:02.866Z,969.25
2016-08-01T00:13:02.865Z,969.26
2016-08-01T00:14:02.870Z,969.26
2016-08-01T00:15:02.870Z,969.28
2016-08-01T00:16:02.869Z,969.31
2016-08-01T00:17:02.870Z,969.3
2016-08-01T00:18:02.874Z,969.29
2016-08-01T00:19:02.874Z,969.28
2016-08-01T00:20:02.874Z,969.27
2016-08-01T00:21:02.874Z,969.28
2016-08-01T00:22:02.885Z,969.29
2016-08-01T00:23:02.878Z,969.27
2016-08-01T00:24:02.878Z,969.28
2016-08-01T00:25:02.879Z,969.31
2016-08-01T00:26:02.883Z,969.33
2016-08-01T00:27:02.882Z,969.31
2016-08-01T00:28:02.883Z,969.32
2016-08-01T00:29:02.883Z,969.38
2016-08-01T00:30:02.886Z,969.37
2016-08-01T00:31:02.887Z,969.38
2016-08-01T00:32:02.891Z,969.41
2016-08-01T00:33:02.887Z,969.41
2016-08-01T00:34:02.887Z,969.39
2016-08-01T00:35:02.893Z,969.4
2016-08-01T00:36:02.891Z,969.37
2016-08-01T00:37:02.891Z,969.44
2016-08-01T00:38:02.891Z,969.41
2016-08-01T00:39:02.891Z,969.46
2016-08-01T00:40:02.895Z,969.46
2016-08-01T00:41:02.895Z,969.47
2016-08-01T00:42:02.895Z,969.46
2016-08-01T00:43:02.895Z,969.48
2016-08-01T00:44:02.900Z,969.51
2016-08-01T00:45:02.899Z,969.54
2016-08-01T00:46:02.899Z,969.54
2016-08-01T00:47:02.900Z,969.52
2016-08-01T00:48:02.903Z,969.55
2016-08-01T00:49:02.905Z,969.51
2016-08-01T00:50:02.903Z,969.54
2016-08-01T00:51:02.903Z,969.56
2016-08-01T00:52:02.907Z,969.51
2016-08-01T00:53:02.907Z,969.51
2016-08-01T00:54:02.907Z,969.52
2016-08-01T00:55:02.907Z,969.49
2016-08-01T00:56:02.912Z,969.51
2016-08-01T00:57:02.911Z,969.53
2016-08-01T00:58:02.912Z,969.53
2016-08-01T00:59:02.912Z,969.52
2016-08-01T01:00:02.916Z,969.55
2016-08-01T01:01:02.917Z,969.52
2016-08-01T01:02:02.916Z,969.52
2016-08-01T01:03:02.916Z,969.55
2016-08-01T01:04:02.916Z,969.5
2016-08-01T01:05:02.921Z,969.49
2016-08-01T01:06:02.920Z,969.48
2016-08-01T01:07:02.921Z,969.48
2016-08-01T01:08:02.924Z,969.48
2016-08-01T01:09:02.920Z,969.46
2016-08-01T01:10:02.924Z,969.54
2016-08-01T01:11:02.925Z,969.52
2016-08-01T01:12:02.925Z,969.55
2016-08-01T01:13:02.925Z,969.52
2016-08-01T01:14:02.928Z,969.56
2016-08-01T01:15:02.928Z,969.55
2016-08-01T01:16:02.928Z,969.54
2016-08-01T01:17:02.928Z,969.48
2016-08-01T01:18:02.929Z,969.53
2016-08-01T01:19:02.931Z,969.52
2016-08-01T01:20:02.932Z,969.52
2016-08-01T01:21:02.935Z,969.52
2016-08-01T01:22:02.933Z,969.47
2016-08-01T01:23:02.932Z,969.44
2016-08-01T01:24:02.936Z,969.43
2016-08-01T01:25:02.937Z,969.45
2016-08-01T01:26:02.937Z,969.37
2016-08-01T01:27:02.936Z,969.4
2016-08-01T01:28:02.940Z,969.37
2016-08-01T01:29:02.941Z,969.39
2016-08-01T01:30:02.941Z,969.36
2016-08-01T01:31:02.941Z,969.36
2016-08-01T01:32:02.941Z,969.33
2016-08-01T01:33:02.945Z,969.36
2016-08-01T01:34:02.945Z,969.34
2016-08-01T01:35:02.945Z,969.35
2016-08-01T01:36:02.944Z,969.34
2016-08-01T01:37:02.945Z,969.34
2016-08-01T01:38:02.949Z,969.29
2016-08-01T01:39:02.949Z,969.33
2016-08-01T01:40:02.949Z,969.31
2016-08-01T01:41:02.949Z,969.3
2016-08-01T01:42:02.950Z,969.29
2016-08-01T01:43:02.953Z,969.3
2016-08-01T01:44:02.953Z,969.3
2016-08-01T01:45:02.953Z,969.29
2016-08-01T01:46:02.952Z,969.32
2016-08-01T01:47:03.006Z,969.34
2016-08-01T01:48:02.955Z,969.38
2016-08-01T01:49:02.957Z,969.35
2016-08-01T01:50:02.957Z,969.36
2016-08-01T01:51:02.957Z,969.36
2016-08-01T01:52:02.957Z,969.37
2016-08-01T01:53:02.957Z,969.32
2016-08-01T01:54:02.961Z,969.36
2016-08-01T01:55:02.961Z,969.38
2016-08-01T01:56:02.962Z,969.34
2016-08-01T01:57:02.963Z,969.34
2016-08-01T01:58:02.966Z,969.36
2016-08-01T01:59:02.966Z,969.36
2016-08-01T02:00:02.966Z,969.36
2016-08-01T02:01:02.965Z,969.33
2016-08-01T02:02:02.966Z,969.31
2016-08-01T02:03:02.966Z,969.33
2016-08-01T02:04:02.969Z,969.31
2016-08-01T02:05:02.970Z,969.34
2016-08-01T02:06:02.970Z,969.32
2016-08-01T02:07:02.968Z,969.3
2016-08-01T02:08:02.970Z,969.27
2016-08-01T02:09:02.973Z,969.28
2016-08-01T02:10:02.974Z,969.27
2016-08-01T02:11:02.973Z,969.3
2016-08-01T02:12:02.974Z,969.24
2016-08-01T02:13:02.973Z,969.25
2016-08-01T02:14:02.973Z,969.23
2016-08-01T02:15:02.977Z,969.24
2016-08-01T02:16:02.978Z,969.25
2016-08-01T02:17:02.977Z,969.25
2016-08-01T02:18:02.978Z,969.27
2016-08-01T02:19:02.980Z,969.26
2016-08-01T02:20:02.982Z,969.26
2016-08-01T02:21:02.982Z,969.28
2016-08-01T02:22:02.977Z,969.23
2016-08-01T02:23:02.981Z,969.27
2016-08-01T02:24:02.985Z,969.24
2016-08-01T02:25:02.985Z,969.2
2016-08-01T02:26:02.985Z,969.24
2016-08-01T02:27:02.985Z,969.22
2016-08-01T02:28:02.986Z,969.21
2016-08-01T02:29:02.985Z,969.22
2016-08-01T02:30:02.994Z,969.22
2016-08-01T02:31:02.990Z,969.21
2016-08-01T02:32:02.990Z,969.22
2016-08-01T02:33:02.990Z,969.24
2016-08-01T02:34:02.994Z,969.25
2016-08-01T02:35:02.993Z,969.2
2016-08-01T02:36:02.994Z,969.25
2016-08-01T02:37:02.994Z,969.22
2016-08-01T02:38:02.994Z,969.26
2016-08-01T02:39:02.994Z,969.24
2016-08-01T02:40:02.994Z,969.26
2016-08-01T02:41:02.998Z,969.24
2016-08-01T02:42:02.999Z,969.26
2016-08-01T02:43:02.998Z,969.26
2016-08-01T02:44:02.998Z,969.26
2016-08-01T02:45:02.999Z,969.25
2016-08-01T02:46:03.003Z,969.24
2016-08-01T02:47:03.004Z,969.27
2016-08-01T02:48:03.003Z,969.28
2016-08-01T02:50:03.002Z,969.33
2016-08-01T02:51:03.003Z,969.36
2016-08-01T02:52:03.007Z,969.37
2016-08-01T02:53:03.007Z,969.42
2016-08-01T02:54:03.007Z,969.37
2016-08-01T02:55:03.007Z,969.42
2016-08-01T02:56:03.007Z,969.45
2016-08-01T02:57:03.011Z,969.42
2016-08-01T02:58:03.011Z,969.43
2016-08-01T02:59:03.012Z,969.42
2016-08-01T03:00:03.011Z,969.41
2016-08-01T03:01:03.011Z,969.44
2016-08-01T03:02:03.011Z,969.48
2016-08-01T03:03:03.016Z,969.52
2016-08-01T03:05:03.015Z,969.55
2016-08-01T03:06:03.016Z,969.54
2016-08-01T03:07:03.015Z,969.53
2016-08-01T03:08:03.020Z,969.57
2016-08-01T03:09:03.019Z,969.59
2016-08-01T03:10:03.020Z,969.55
2016-08-01T03:11:03.024Z,969.56
2016-08-01T03:12:03.020Z,969.58
2016-08-01T03:13:03.020Z,969.6
2016-08-01T03:14:03.020Z,969.58
2016-08-01T03:15:03.024Z,969.57
2016-08-01T03:16:03.024Z,969.56
2016-08-01T03:17:03.028Z,969.56
2016-08-01T03:18:03.024Z,969.57
2016-08-01T03:19:03.024Z,969.6
2016-08-01T03:20:03.024Z,969.56
2016-08-01T03:21:03.028Z,969.57
2016-08-01T03:22:03.030Z,969.62
2016-08-01T03:23:03.028Z,969.65
2016-08-01T03:24:03.028Z,969.61
2016-08-01T03:25:03.028Z,969.62
2016-08-01T03:26:03.032Z,969.67
2016-08-01T03:27:03.029Z,969.65
2016-08-01T03:28:03.032Z,969.67
2016-08-01T03:29:03.032Z,969.62
2016-08-01T03:30:03.033Z,969.67
2016-08-01T03:31:03.032Z,969.63
2016-08-01T03:32:03.036Z,969.62
2016-08-01T03:33:03.036Z,969.64
2016-08-01T03:34:03.037Z,969.64
2016-08-01T03:35:03.036Z,969.69
2016-08-01T03:36:03.036Z,969.62
2016-08-01T03:37:03.037Z,969.63
2016-08-01T03:38:03.036Z,969.64
2016-08-01T03:39:03.040Z,969.66
2016-08-01T03:40:03.041Z,969.66
2016-08-01T03:41:03.040Z,969.65
2016-08-01T03:42:03.040Z,969.68
2016-08-01T03:43:03.041Z,969.69
2016-08-01T03:44:03.045Z,969.71
2016-08-01T03:45:03.040Z,969.68
2016-08-01T03:46:03.045Z,969.68
2016-08-01T03:47:03.045Z,969.69
2016-08-01T03:48:03.045Z,969.7
2016-08-01T03:49:03.045Z,969.7
2016-08-01T03:50:03.046Z,969.68
2016-08-01T03:51:03.049Z,969.75
2016-08-01T03:52:03.049Z,969.73
2016-08-01T03:53:03.051Z,969.73
2016-08-01T03:54:03.050Z,969.74
2016-08-01T03:55:03.050Z,969.75
2016-08-01T03:56:03.050Z,969.77
2016-08-01T03:57:03.050Z,969.78
2016-08-01T03:58:03.053Z,969.74
2016-08-01T03:59:03.054Z,969.73
2016-08-01T04:00:03.054Z,969.78
2016-08-01T04:01:03.054Z,969.77
2016-08-01T04:02:03.054Z,969.77
2016-08-01T04:03:03.053Z,969.77
2016-08-01T04:04:03.058Z,969.74
2016-08-01T04:05:03.063Z,969.75
2016-08-01T04:06:03.062Z,969.78
2016-08-01T04:07:03.058Z,969.77
2016-08-01T04:08:03.057Z,969.77
2016-08-01T04:09:03.067Z,969.79
2016-08-01T04:10:03.062Z,969.86
2016-08-01T04:11:03.062Z,969.82
2016-08-01T04:12:03.063Z,969.84
2016-08-01T04:13:03.063Z,969.86
2016-08-01T04:14:03.062Z,969.87
2016-08-01T04:15:03.067Z,969.89
2016-08-01T04:16:03.067Z,969.92
2016-08-01T04:17:03.067Z,969.88
2016-08-01T04:18:03.066Z,969.95
2016-08-01T04:19:03.067Z,969.93
2016-08-01T04:20:03.067Z,969.93
2016-08-01T04:21:03.070Z,969.94
2016-08-01T04:22:03.071Z,969.95
2016-08-01T04:23:03.070Z,969.97
2016-08-01T04:24:03.071Z,969.96
2016-08-01T04:25:03.070Z,969.97
2016-08-01T04:26:03.070Z,969.97
2016-08-01T04:27:03.071Z,969.96
2016-08-01T04:28:03.075Z,969.95
2016-08-01T04:29:03.074Z,969.96
2016-08-01T04:30:03.079Z,969.96
2016-08-01T04:31:03.075Z,969.98
2016-08-01T04:32:03.075Z,969.99
2016-08-01T04:33:03.074Z,970.06
2016-08-01T04:34:03.074Z,970.08
2016-08-01T04:35:03.080Z,970.09
2016-08-01T04:36:03.080Z,970.13
2016-08-01T04:37:03.084Z,970.12
2016-08-01T04:38:03.082Z,970.14
2016-08-01T04:39:03.079Z,970.16
2016-08-01T04:40:03.079Z,970.19
2016-08-01T04:41:03.082Z,970.21
2016-08-01T04:42:03.084Z,970.21
2016-08-01T04:43:03.083Z,970.23
2016-08-01T04:44:03.085Z,970.26
2016-08-01T04:45:03.089Z,970.26
2016-08-01T04:46:03.083Z,970.24
2016-08-01T04:47:03.083Z,970.26
2016-08-01T04:48:03.088Z,970.29
2016-08-01T04:49:03.087Z,970.27
2016-08-01T04:50:03.087Z,970.3
2016-08-01T04:51:03.087Z,970.34
2016-08-01T04:52:03.087Z,970.32
2016-08-01T04:53:03.087Z,970.32
2016-08-01T04:54:03.092Z,970.34
2016-08-01T04:55:03.091Z,970.35
2016-08-01T04:56:03.091Z,970.34
2016-08-01T04:57:03.092Z,970.33
2016-08-01T04:58:03.091Z,970.34
2016-08-01T04:59:03.092Z,970.32
2016-08-01T05:00:03.092Z,970.33
2016-08-01T05:01:03.096Z,970.33
2016-08-01T05:02:03.096Z,970.35
2016-08-01T05:03:03.096Z,970.37
2016-08-01T05:04:03.095Z,970.35
2016-08-01T05:05:03.096Z,970.35
2016-08-01T05:06:03.096Z,970.36
2016-08-01T05:07:03.100Z,970.36
2016-08-01T05:08:03.100Z,970.34
2016-08-01T05:09:03.101Z,970.43
2016-08-01T05:10:03.101Z,970.43
2016-08-01T05:11:03.101Z,970.46
2016-08-01T05:12:03.101Z,970.44
2016-08-01T05:13:03.099Z,970.43
2016-08-01T05:14:03.105Z,970.44
2016-08-01T05:15:03.105Z,970.43
2016-08-01T05:16:03.104Z,970.46
2016-08-01T05:17:03.105Z,970.47
2016-08-01T05:18:03.104Z,970.5
2016-08-01T05:19:03.104Z,970.48
2016-08-01T05:20:03.104Z,970.5
2016-08-01T05:21:03.109Z,970.49
2016-08-01T05:22:03.110Z,970.51
2016-08-01T05:23:03.109Z,970.48
2016-08-01T05:24:03.109Z,970.49
2016-08-01T05:25:03.109Z,970.54
2016-08-01T05:26:03.114Z,970.53
2016-08-01T05:27:03.113Z,970.55
2016-08-01T05:28:03.113Z,970.52
2016-08-01T05:29:03.113Z,970.54
2016-08-01T05:30:03.114Z,970.53
2016-08-01T05:31:03.113Z,970.55
2016-08-01T05:32:03.114Z,970.57
2016-08-01T05:33:03.118Z,970.57
2016-08-01T05:34:03.117Z,970.57
2016-08-01T05:35:03.117Z,970.61
2016-08-01T05:36:03.120Z,970.59
2016-08-01T05:37:03.118Z,970.59
2016-08-01T05:38:03.121Z,970.62
2016-08-01T05:39:03.121Z,970.59
2016-08-01T05:40:03.122Z,970.61
2016-08-01T05:41:03.121Z,970.58
2016-08-01T05:42:03.121Z,970.61
2016-08-01T05:43:03.126Z,970.61
2016-08-01T05:44:03.125Z,970.59
2016-08-01T05:45:03.125Z,970.59
2016-08-01T05:46:03.125Z,970.59
2016-08-01T05:47:03.125Z,970.61
2016-08-01T05:48:03.128Z,970.59
2016-08-01T05:49:03.125Z,970.56
2016-08-01T05:50:03.130Z,970.56
2016-08-01T05:51:03.129Z,970.58
2016-08-01T05:52:03.130Z,970.58
2016-08-01T05:53:03.130Z,970.63
2016-08-01T05:54:03.133Z,970.62
2016-08-01T05:55:03.135Z,970.63
2016-08-01T05:56:03.135Z,970.65
2016-08-01T05:57:03.134Z,970.65
2016-08-01T05:58:03.134Z,970.71
2016-08-01T05:59:03.139Z,970.69
2016-08-01T06:00:03.139Z,970.71
2016-08-01T06:01:03.139Z,970.67
2016-08-01T06:02:03.139Z,970.7
2016-08-01T06:03:03.142Z,970.71
2016-08-01T06:04:03.138Z,970.7
2016-08-01T06:05:03.143Z,970.72
2016-08-01T06:06:03.142Z,970.72
2016-08-01T06:07:03.143Z,970.73
2016-08-01T06:08:03.143Z,970.74
2016-08-01T06:09:03.146Z,970.72
2016-08-01T06:10:03.146Z,970.76
2016-08-01T06:11:03.147Z,970.75
2016-08-01T06:12:03.146Z,970.71
2016-08-01T06:13:03.147Z,970.74
2016-08-01T06:14:03.151Z,970.72
2016-08-01T06:15:03.151Z,970.72
2016-08-01T06:16:03.151Z,970.74
2016-08-01T06:17:03.150Z,970.75
2016-08-01T06:18:03.150Z,970.7
2016-08-01T06:19:03.151Z,970.77
2016-08-01T06:20:03.155Z,970.76
2016-08-01T06:21:03.155Z,970.76
2016-08-01T06:22:03.156Z,970.77
2016-08-01T06:23:03.155Z,970.76
2016-08-01T06:24:03.158Z,970.75
2016-08-01T06:25:03.159Z,970.76
2016-08-01T06:26:03.159Z,970.7
2016-08-01T06:27:03.170Z,970.74
2016-08-01T06:28:03.159Z,970.68
2016-08-01T06:29:03.165Z,970.72
2016-08-01T06:30:03.164Z,970.67
2016-08-01T06:31:03.162Z,970.72
2016-08-01T06:32:03.162Z,970.69
2016-08-01T06:33:03.164Z,970.69
2016-08-01T06:34:03.167Z,970.7
2016-08-01T06:35:03.167Z,970.68
2016-08-01T06:36:03.167Z,970.68
2016-08-01T06:37:03.168Z,970.72
2016-08-01T06:38:03.167Z,970.72
2016-08-01T06:39:03.171Z,970.72
2016-08-01T06:40:03.172Z,970.77
2016-08-01T06:41:03.170Z,970.75
2016-08-01T06:42:03.171Z,970.76
2016-08-01T06:43:03.170Z,970.73
2016-08-01T06:44:03.171Z,970.72
2016-08-01T06:45:03.179Z,970.75
2016-08-01T06:46:03.175Z,970.73
2016-08-01T06:47:03.176Z,970.75
2016-08-01T06:48:03.175Z,970.76
2016-08-01T06:49:03.179Z,970.74
2016-08-01T06:50:03.180Z,970.78
2016-08-01T06:51:03.180Z,970.81
2016-08-01T06:52:03.179Z,970.8
2016-08-01T06:53:03.179Z,970.79
2016-08-01T06:54:03.187Z,970.79
2016-08-01T06:55:03.183Z,970.78
2016-08-01T06:56:03.183Z,970.78
2016-08-01T06:57:03.182Z,970.79
2016-08-01T06:58:03.188Z,970.76
2016-08-01T06:59:03.187Z,970.78
2016-08-01T07:00:03.188Z,970.76
2016-08-01T07:01:03.188Z,970.76
2016-08-01T07:02:03.187Z,970.74
2016-08-01T07:03:03.187Z,970.77
2016-08-01T07:04:03.192Z,970.76
2016-08-01T07:05:03.191Z,970.78
2016-08-01T07:06:03.191Z,970.78
2016-08-01T07:07:03.192Z,970.78
2016-08-01T07:08:03.195Z,970.79
2016-08-01T07:09:03.195Z,970.82
2016-08-01T07:10:03.195Z,970.85
2016-08-01T07:11:03.196Z,970.79
2016-08-01T07:12:03.201Z,970.79
2016-08-01T07:13:03.199Z,970.79
2016-08-01T07:14:03.204Z,970.78
2016-08-01T07:15:03.203Z,970.8
2016-08-01T07:16:03.204Z,970.77
2016-08-01T07:17:03.204Z,970.77
2016-08-01T07:18:03.204Z,970.73
2016-08-01T07:19:03.208Z,970.71
2016-08-01T07:20:03.209Z,970.69
2016-08-01T07:21:03.213Z,970.67
2016-08-01T07:22:03.212Z,970.67
2016-08-01T07:23:03.213Z,970.72
2016-08-01T07:24:03.213Z,970.69
2016-08-01T07:25:03.214Z,970.69
2016-08-01T07:26:03.213Z,970.7
2016-08-01T07:27:03.217Z,970.67
2016-08-01T07:28:03.224Z,970.73
2016-08-01T07:29:03.216Z,970.74
2016-08-01T07:30:03.218Z,970.72
2016-08-01T07:31:03.221Z,970.72
2016-08-01T07:32:03.221Z,970.76
2016-08-01T07:33:03.221Z,970.72
2016-08-01T07:34:03.222Z,970.74
2016-08-01T07:35:03.225Z,970.71
2016-08-01T07:36:03.226Z,970.68
2016-08-01T07:37:03.226Z,970.69
2016-08-01T07:38:03.229Z,970.69
2016-08-01T07:39:03.230Z,970.67
2016-08-01T07:40:03.230Z,970.7
2016-08-01T07:41:03.234Z,970.7
2016-08-01T07:42:03.233Z,970.73
2016-08-01T07:43:03.245Z,970.69
2016-08-01T07:44:03.234Z,970.73
2016-08-01T07:45:03.238Z,970.72
2016-08-01T07:46:03.349Z,970.71
2016-08-01T07:47:03.291Z,970.74
2016-08-01T07:48:03.242Z,970.7
2016-08-01T07:49:03.241Z,970.73
2016-08-01T07:51:03.246Z,970.69
2016-08-01T07:52:03.246Z,970.7
2016-08-01T07:53:03.438Z,970.69
2016-08-01T07:54:03.250Z,970.71
2016-08-01T07:55:03.250Z,970.67
2016-08-01T07:56:03.249Z,970.62
2016-08-01T07:57:03.254Z,970.65
2016-08-01T07:58:03.254Z,970.69
2016-08-01T07:59:03.254Z,970.69
2016-08-01T08:00:03.257Z,970.64
2016-08-01T08:01:03.258Z,970.68
2016-08-01T08:02:03.258Z,970.72
2016-08-01T08:03:03.261Z,970.69
2016-08-01T08:04:03.262Z,970.68
2016-08-01T08:06:03.266Z,970.66
2016-08-01T08:07:03.267Z,970.67
2016-08-01T08:08:03.267Z,970.68
2016-08-01T08:09:03.270Z,970.71
2016-08-01T08:10:03.270Z,970.69
2016-08-01T08:11:03.274Z,970.66
2016-08-01T08:12:03.274Z,970.68
2016-08-01T08:13:03.274Z,970.68
2016-08-01T08:14:03.278Z,970.66
2016-08-01T08:15:03.279Z,970.64
2016-08-01T08:16:03.282Z,970.65
2016-08-01T08:17:03.283Z,970.64
2016-08-01T08:18:03.283Z,970.67
2016-08-01T08:19:03.287Z,970.68
2016-08-01T08:20:03.287Z,970.66
2016-08-01T08:21:03.291Z,970.69
2016-08-01T08:22:03.290Z,970.69
2016-08-01T08:23:03.289Z,970.69
2016-08-01T08:24:03.295Z,970.68
2016-08-01T08:25:03.295Z,970.73
2016-08-01T08:26:03.299Z,970.72
2016-08-01T08:27:03.299Z,970.68
2016-08-01T08:28:03.299Z,970.75
2016-08-01T08:29:03.303Z,970.76
2016-08-01T08:30:03.303Z,970.81
2016-08-01T08:31:03.303Z,970.8
2016-08-01T08:32:03.307Z,970.8
2016-08-01T08:33:03.307Z,970.82
2016-08-01T08:34:03.312Z,970.76
2016-08-01T08:35:03.311Z,970.74
2016-08-01T08:36:03.316Z,970.76
2016-08-01T08:37:03.315Z,970.78
2016-08-01T08:38:03.315Z,970.76
2016-08-01T08:39:03.320Z,970.8
2016-08-01T08:40:03.319Z,970.82
2016-08-01T08:41:03.324Z,970.82
2016-08-01T08:42:03.323Z,970.82
2016-08-01T08:43:03.323Z,970.86
2016-08-01T08:44:03.328Z,970.85
2016-08-01T08:45:03.327Z,970.83
2016-08-01T08:46:03.331Z,970.89
2016-08-01T08:47:03.331Z,970.88
2016-08-01T08:48:03.336Z,970.84
2016-08-01T08:49:03.335Z,970.9
2016-08-01T08:50:03.339Z,970.89
2016-08-01T08:51:03.339Z,970.9
2016-08-01T08:52:03.340Z,970.95
2016-08-01T08:53:03.343Z,970.98
2016-08-01T08:54:03.343Z,970.96
2016-08-01T08:55:03.347Z,971.02
2016-08-01T08:56:03.348Z,970.99
2016-08-01T08:57:03.351Z,971.06
2016-08-01T08:58:03.352Z,971.05
2016-08-01T08:59:03.351Z,971.05
2016-08-01T09:00:03.356Z,971.02
2016-08-01T09:01:03.356Z,971.06
2016-08-01T09:02:03.360Z,971.07
2016-08-01T09:03:03.360Z,971.08
2016-08-01T09:04:03.364Z,971.05
2016-08-01T09:05:03.364Z,971.09
2016-08-01T09:06:03.367Z,971.09
2016-08-01T09:07:03.368Z,971.12
2016-08-01T09:08:03.368Z,971.14
2016-08-01T09:09:03.372Z,971.15
2016-08-01T09:10:03.372Z,971.13
2016-08-01T09:11:03.376Z,971.14
2016-08-01T09:12:03.377Z,971.15
2016-08-01T09:13:03.380Z,971.19
2016-08-01T09:14:03.379Z,971.18
2016-08-01T09:15:03.381Z,971.2
2016-08-01T09:16:03.384Z,971.15
2016-08-01T09:17:03.389Z,971.18
2016-08-01T09:18:03.388Z,971.2
2016-08-01T09:19:03.388Z,971.19
2016-08-01T09:20:03.393Z,971.2
2016-08-01T09:21:03.392Z,971.21
2016-08-01T09:22:03.392Z,971.21
2016-08-01T09:23:03.395Z,971.18
2016-08-01T09:24:03.396Z,971.2
2016-08-01T09:25:03.401Z,971.18
2016-08-01T09:26:03.401Z,971.21
2016-08-01T09:27:03.405Z,971.22
2016-08-01T09:28:03.405Z,971.21
2016-08-01T09:29:03.405Z,971.17
2016-08-01T09:30:03.409Z,971.21
2016-08-01T09:31:03.409Z,971.22
2016-08-01T09:32:03.413Z,971.23
2016-08-01T09:33:03.413Z,971.21
2016-08-01T09:34:03.417Z,971.21
2016-08-01T09:35:03.417Z,971.19
2016-08-01T09:36:03.418Z,971.18
2016-08-01T09:37:03.421Z,971.18
2016-08-01T09:38:03.421Z,971.2
2016-08-01T09:39:03.425Z,971.17
2016-08-01T09:40:03.425Z,971.21
2016-08-01T09:41:03.425Z,971.23
2016-08-01T09:42:03.429Z,971.21
2016-08-01T09:43:03.429Z,971.19
2016-08-01T09:44:03.432Z,971.2
2016-08-01T09:45:03.437Z,971.18
2016-08-01T09:46:03.437Z,971.2
2016-08-01T09:47:03.438Z,971.18
2016-08-01T09:48:03.437Z,971.18
2016-08-01T09:49:03.442Z,971.18
2016-08-01T09:50:03.442Z,971.21
2016-08-01T09:51:03.446Z,971.18
2016-08-01T09:52:03.445Z,971.16
2016-08-01T09:53:03.450Z,971.2
2016-08-01T09:54:03.450Z,971.21
2016-08-01T09:55:03.451Z,971.18
2016-08-01T09:56:03.453Z,971.21
2016-08-01T09:57:03.453Z,971.23
2016-08-01T09:58:03.458Z,971.24
2016-08-01T09:59:03.469Z,971.25
2016-08-01T10:00:03.458Z,971.25
2016-08-01T10:01:03.462Z,971.26
2016-08-01T10:02:03.462Z,971.22
2016-08-01T10:03:03.465Z,971.24
2016-08-01T10:04:03.480Z,971.25
2016-08-01T10:05:03.466Z,971.26
2016-08-01T10:06:03.470Z,971.26
2016-08-01T10:07:03.470Z,971.25
2016-08-01T10:08:03.474Z,971.22
2016-08-01T10:09:03.474Z,971.21
2016-08-01T10:10:03.478Z,971.27
2016-08-01T10:11:03.478Z,971.26
2016-08-01T10:12:03.482Z,971.25
2016-08-01T10:13:03.482Z,971.25
2016-08-01T10:14:03.482Z,971.26
2016-08-01T10:15:03.486Z,971.24
2016-08-01T10:16:03.486Z,971.24
2016-08-01T10:17:03.486Z,971.21
2016-08-01T10:18:03.491Z,971.26
2016-08-01T10:19:03.490Z,971.26
2016-08-01T10:20:03.494Z,971.25
2016-08-01T10:21:03.495Z,971.26
2016-08-01T10:22:03.498Z,971.25
2016-08-01T10:23:03.499Z,971.25
2016-08-01T10:24:03.502Z,971.24
2016-08-01T10:25:03.503Z,971.25
2016-08-01T10:26:03.503Z,971.22
2016-08-01T10:27:03.506Z,971.25
2016-08-01T10:28:03.507Z,971.23
2016-08-01T10:29:03.511Z,971.27
2016-08-01T10:30:03.511Z,971.29
2016-08-01T10:31:03.510Z,971.26
2016-08-01T10:32:03.514Z,971.23
2016-08-01T10:33:03.514Z,971.24
2016-08-01T10:34:03.519Z,971.27
2016-08-01T10:35:03.519Z,971.25
2016-08-01T10:36:03.518Z,971.24
2016-08-01T10:37:03.523Z,971.23
2016-08-01T10:38:03.522Z,971.22
2016-08-01T10:39:03.526Z,971.26
2016-08-01T10:40:03.527Z,971.19
2016-08-01T10:41:03.530Z,971.22
2016-08-01T10:42:03.531Z,971.19
2016-08-01T10:43:03.530Z,971.18
2016-08-01T10:44:03.534Z,971.17
2016-08-01T10:45:03.536Z,971.16
2016-08-01T10:46:03.534Z,971.14
2016-08-01T10:47:03.539Z,971.13
2016-08-01T10:48:03.539Z,971.14
2016-08-01T10:49:03.542Z,971.14
2016-08-01T10:50:03.543Z,971.09
2016-08-01T10:51:03.547Z,971.1
2016-08-01T10:52:03.547Z,971.1
2016-08-01T10:53:03.548Z,971.14
2016-08-01T10:54:03.575Z,971.1
2016-08-01T10:55:03.551Z,971.09
2016-08-01T10:56:03.552Z,971.11
2016-08-01T10:57:03.556Z,971.09
2016-08-01T10:58:03.555Z,971.1
2016-08-01T10:59:03.560Z,971.12
2016-08-01T11:00:03.560Z,971.15
2016-08-01T11:01:03.563Z,971.12
2016-08-01T11:02:03.564Z,971.13
2016-08-01T11:03:03.667Z,971.15
2016-08-01T11:04:03.568Z,971.15
2016-08-01T11:05:03.568Z,971.11
2016-08-01T11:06:03.572Z,971.13
2016-08-01T11:07:03.571Z,971.14
2016-08-01T11:08:03.572Z,971.13
2016-08-01T11:09:03.576Z,971.14
2016-08-01T11:10:03.579Z,971.12
2016-08-01T11:11:03.580Z,971.12
2016-08-01T11:12:03.580Z,971.09
2016-08-01T11:13:03.584Z,971.07
2016-08-01T11:14:03.584Z,971.01
2016-08-01T11:15:03.585Z,970.99
2016-08-01T11:16:03.588Z,971.03
2016-08-01T11:17:03.588Z,970.98
2016-08-01T11:18:03.593Z,970.97
2016-08-01T11:19:03.592Z,970.96
2016-08-01T11:20:03.596Z,970.98
2016-08-01T11:21:03.596Z,970.98
2016-08-01T11:22:03.596Z,970.93
2016-08-01T11:23:03.600Z,970.89
2016-08-01T11:24:03.600Z,970.94
2016-08-01T11:25:03.605Z,970.89
2016-08-01T11:26:03.605Z,970.88
2016-08-01T11:27:03.608Z,970.84
2016-08-01T11:28:03.608Z,970.83
2016-08-01T11:29:03.609Z,970.86
2016-08-01T11:30:03.613Z,970.83
2016-08-01T11:31:03.612Z,970.85
2016-08-01T11:32:03.617Z,970.78
2016-08-01T11:33:03.617Z,970.85
2016-08-01T11:34:03.616Z,970.85
2016-08-01T11:35:03.621Z,970.85
2016-08-01T11:36:03.620Z,970.85
2016-08-01T11:37:03.629Z,970.88
2016-08-01T11:38:03.625Z,970.92
2016-08-01T11:39:03.629Z,970.91
2016-08-01T11:40:03.629Z,970.91
2016-08-01T11:41:03.634Z,970.93
2016-08-01T11:42:03.633Z,970.93
2016-08-01T11:43:03.634Z,970.88
2016-08-01T11:44:03.638Z,970.89
2016-08-01T11:45:03.637Z,970.86
2016-08-01T11:46:03.641Z,970.9
2016-08-01T11:47:03.642Z,970.9
2016-08-01T11:48:03.641Z,970.9
2016-08-01T11:49:03.645Z,970.89
2016-08-01T11:50:03.645Z,970.87
2016-08-01T11:51:03.650Z,970.88
2016-08-01T11:52:03.649Z,970.96
2016-08-01T11:53:03.651Z,970.94
2016-08-01T11:54:03.654Z,970.96
2016-08-01T11:55:03.654Z,970.94
2016-08-01T11:56:03.657Z,970.95
2016-08-01T11:57:03.658Z,970.97
2016-08-01T11:58:03.661Z,970.98
2016-08-01T11:59:03.662Z,970.96
2016-08-01T12:00:03.665Z,970.95
2016-08-01T12:01:03.666Z,970.92
2016-08-01T12:02:03.666Z,970.96
2016-08-01T12:03:03.670Z,970.94
2016-08-01T12:04:03.670Z,970.91
2016-08-01T12:05:03.674Z,970.91
2016-08-01T12:06:03.674Z,970.88
2016-08-01T12:07:03.678Z,970.85
2016-08-01T12:08:03.678Z,970.85
2016-08-01T12:09:03.678Z,970.86
2016-08-01T12:10:03.682Z,970.84
2016-08-01T12:11:03.682Z,970.86
2016-08-01T12:12:03.687Z,970.85
2016-08-01T12:13:03.687Z,970.83
2016-08-01T12:14:03.686Z,970.85
2016-08-01T12:15:03.691Z,970.85
2016-08-01T12:16:03.691Z,970.86
2016-08-01T12:17:03.694Z,970.85
2016-08-01T12:18:03.695Z,970.87
2016-08-01T12:19:03.698Z,970.85
2016-08-01T12:20:03.699Z,970.86
2016-08-01T12:22:03.702Z,970.86
2016-08-01T12:23:05.114Z,970.91
2016-08-01T12:26:15.814Z,970.8
2016-08-01T12:27:15.814Z,970.84
2016-08-01T12:28:15.818Z,970.88
2016-08-01T12:29:15.819Z,970.87
2016-08-01T12:30:15.822Z,970.87
2016-08-01T12:31:15.822Z,970.87
2016-08-01T12:32:15.822Z,970.84
2016-08-01T12:33:15.827Z,970.91
2016-08-01T12:34:15.830Z,970.88
2016-08-01T12:35:15.831Z,970.89
2016-08-01T12:36:15.831Z,970.89
2016-08-01T12:37:15.831Z,970.93